• Join FlightAware (Why Join?)
  • Login
  • US Flag 
07:03PM EST


 

Airport Tracker/Info


-or-


 

Live Flight TrackerFlight Track Log ✈ AAY841 ✈ 20-Apr-2014 ✈ KTRI - KPIE

Flight Track Log - Related Links

Times and Time Zones

All times are in EDT time to prevent confusion due to time zone crossing. See the AAY841 flight status page for this flight to view local times or setup timezone preferences in your user account.

Time Position Orientation Groundspeed Altitude Reporting Facility
EDT Latitude Longitude Course Direction KTS MPH feet Rate Location/Type
08:50AM 36.3964 -82.4578 169° South 215 247 4,300  Level Atlanta Center
08:51AM 36.3189 -82.4386 169° South 252 290 7,000 3,000 Climbing Atlanta Center
08:52AM 36.2333 -82.4222 171° South 283 326 10,300 2,400 Climbing Atlanta Center
08:53AM 36.1414 -82.4061 172° South 316 364 11,800 1,980 Climbing Atlanta Center
08:54AM 36.0367 -82.3903 178° South 359 413 14,300 2,520 Climbing Atlanta Center
08:55AM 35.9283 -82.3925 181° South 383 441 16,900 1,920 Climbing Atlanta Center
09:01AM 35.1908 -82.4165 181° South 466 536 27,600 1,740 Climbing FlightAware ADS-B (KDZJ)
09:02AM 35.0701 -82.4201 181° South 463 533 28,900 1,320 Climbing FlightAware ADS-B (KDZJ)
09:02AM 34.9802 -82.4229 182° South 467 537 29,800 1,320 Climbing FlightAware ADS-B (KDZJ)
09:03AM 34.8843 -82.4258 182° South 467 537 30,800 1,320 Climbing FlightAware ADS-B (KDZJ)
09:03AM 34.8162 -82.4279 182° South 466 536 31,500 1,380 Climbing FlightAware ADS-B (KDZJ)
09:04AM 34.7070 -82.4313 181° South 465 535 32,700 1,320 Climbing FlightAware ADS-B (KDZJ)
09:05AM 34.5773 -82.4351 181° South 465 535 33,900 780 Climbing FlightAware ADS-B (KDZJ)
09:06AM 34.5664 -82.4394 181° South 480 552 33,900 60 Level Atlanta Center
09:07AM 34.4350 -82.4394 180° South 474 545 34,000  Climbing Atlanta Center
09:08AM 34.3056 -82.4444 182° South 474 545 34,000  Level Atlanta Center
09:09AM 34.1764 -82.4494 182° South 474 545 34,000  Level Atlanta Center
09:10AM 34.0408 -82.4519 181° South 484 557 34,000  Level Atlanta Center
09:11AM 33.9092 -82.4569 182° South 476 548 34,000  Level Atlanta Center
09:12AM 33.7842 -82.4592 181° South 471 542 34,000  Level Atlanta Center
09:13AM 33.6464 -82.4642 182° South 478 550 34,000  Level Atlanta Center
09:14AM 33.5150 -82.4692 182° South 479 551 34,000  Level Atlanta Center
09:15AM 33.3711 -82.4742 182° South 473 544 34,000  Level Atlanta Center
09:16AM 33.2375 -82.4767 181° South 473 544 34,000  Level Atlanta Center
09:17AM 33.1081 -82.4789 181° South 473 544 34,000  Level Atlanta Center
09:19AM 32.8464 -82.4894 182° South 495 570 34,000  Level Jacksonville Center
09:20AM 32.7108 -82.4900 180° South 490 564 34,000  Level Jacksonville Center
09:21AM 32.5772 -82.4931 181° South 450 518 34,000  Level Jacksonville Center
09:22AM 32.4456 -82.4544 166° South 469 540 34,000  Level Jacksonville Center
09:23AM 32.3242 -82.3789 152° Southeast 478 550 34,000  Level Jacksonville Center
09:24AM 32.1903 -82.3058 155° Southeast 483 556 34,000  Level Jacksonville Center
09:25AM 32.0711 -82.2600 162° South 473 544 34,000  Level Jacksonville Center
09:26AM 31.9289 -82.2097 163° South 483 556 34,000  Level Jacksonville Center
09:27AM 31.8094 -82.1664 163° South 449 517 34,000  Level Jacksonville Center
09:28AM 31.6778 -82.1308 167° South 481 554 34,000  Level Jacksonville Center
09:29AM 31.5272 -82.1053 172° South 499 574 34,000  Level Jacksonville Center
09:30AM 31.3936 -82.0869 173° South 499 574 34,000  Level Jacksonville Center
09:31AM 31.2622 -82.1050 187° South 487 560 34,000  Level Jacksonville Center
09:32AM 31.1328 -82.1256 188° South 482 555 34,000  Level Jacksonville Center
09:33AM 31.0033 -82.1486 189° South 476 548 34,000  Level Jacksonville Center
09:34AM 30.8761 -82.1689 188° South 476 548 34,000  Level Jacksonville Center
09:35AM 30.7447 -82.1844 186° South 471 542 34,000  Level Jacksonville Center
09:36AM 30.6197 -82.2069 189° South 471 542 34,000 -180 Level Jacksonville Center
09:42AM 29.8728 -82.2956 180° South 462 532 33,000 -720 Descending FlightAware ADS-B (KMCO)
09:43AM 29.6949 -82.3334 192° South 451 519 28,900 -2,280 Descending FlightAware ADS-B (KMCO)
09:47AM 29.2463 -82.3173 174° South 417 480 21,600 -2,040 Descending FlightAware ADS-B (KMCO)
09:49AM 29.0354 -82.2922 174° South 396 456 17,800 -1,620 Descending FlightAware ADS-B (KMCO)
09:53AM 28.6255 -82.2572 195° South 355 409 12,300 -1,380 Descending FlightAware ADS-B (KMCO)
09:53AM 28.6046 -82.2654 206° Southwest 349 402 12,100 -1,140 Descending FlightAware ADS-B (KMCO)
09:53AM 28.5813 -82.2887 236° Southwest 333 383 11,700 -1,320 Descending FlightAware ADS-B (KMCO)
09:54AM 28.5536 -82.3475 243° Southwest 328 377 10,800 -1,320 Descending FlightAware ADS-B (KMCO)
09:55AM 28.5226 -82.4175 244° Southwest 327 376 9,900 -720 Descending FlightAware ADS-B (KMCO)
09:55AM 28.4970 -82.4755 244° Southwest 326 375 9,900  Level FlightAware ADS-B (KMCO)
09:57AM 28.4500 -82.5833 244° Southwest 326 375 10,000  Climbing Tampa TRACON
09:57AM 28.3833 -82.6500 221° Southwest 307 353 9,900 -960 Descending Tampa TRACON
09:58AM 28.3167 -82.6833 204° Southwest 293 337 8,200 -1,620 Descending Tampa TRACON
09:59AM 28.2333 -82.7167 199° South 293 337 6,700 -1,140 Descending Tampa TRACON
10:00AM 28.1667 -82.7500 204° Southwest 258 297 6,000 -900 Descending Tampa TRACON
10:01AM 28.1000 -82.7500 180° South 237 273 4,900 -1,200 Descending Tampa TRACON
10:03AM 28.0333 -82.7667 192° South 231 266 3,600 -1,140 Descending Tampa TRACON
10:04AM 27.9667 -82.7500 168° South 226 260 2,600 -600 Descending Tampa TRACON
10:04AM 27.9167 -82.7500 180° South 186 214 2,500 -360 Descending Tampa TRACON
10:06AM 27.8667 -82.7500 180° South 192 221 1,900 -360 Descending Tampa TRACON
10:07AM 27.8000 -82.7333 168° South 192 221 1,800 -300 Descending Tampa TRACON
10:08AM 27.8167 -82.6833 69° East 158 182 1,400 -480 Descending Tampa TRACON
10:09AM 27.8500 -82.6833 360° North 124 143 900 -600 Descending Tampa TRACON
10:10AM 27.8833 -82.6833 360° North 128 147 200 -720 Descending Tampa TRACON
10:12AM 27.9000 -82.6833 310° West  Level FlightAware Approximate